Terminal Aerodrome Forecast
Issued by NWS Upton, NY

Current Version | Previous Version | Text Only | Print | Product List | Glossary On
Versions: 1 2 3 4 5 6 7 8 9 10 11 12 13 14 15 16 17 18 19 20 21 22 23 24 25 26 27 28 29
000 FTUS41 KOKX 200200 AAA TAFJFK TAF AMD KJFK 200240Z 2003/2106 03008KT P6SM BKN250 FM200800 05008KT P6SM SKC FM201200 06010KT P6SM SKC FM201600 10010KT P6SM SKC FM202000 13012KT P6SM SKC FM210100 12007KT P6SM FEW250=

USA.gov is the U.S. government's official web portal to all federal, state and local government web resources and services.